sensor_id;sensor_type;location;lat;lon;timestamp;P1;durP1;ratioP1;P2;durP2;ratioP2
22752;SDS011;11543;43.144;24.684;2022-08-03T00:01:16;2.58;;;1.40;;
22752;SDS011;11543;43.144;24.684;2022-08-03T00:03:42;2.10;;;1.20;;
22752;SDS011;11543;43.144;24.684;2022-08-03T00:06:07;2.08;;;1.48;;
22752;SDS011;11543;43.144;24.684;2022-08-03T00:08:33;2.30;;;1.48;;
22752;SDS011;11543;43.144;24.684;2022-08-03T00:10:58;2.67;;;1.40;;
22752;SDS011;11543;43.144;24.684;2022-08-03T00:13:24;1.67;;;1.48;;
22752;SDS011;11543;43.144;24.684;2022-08-03T00:15:50;1.95;;;1.48;;
22752;SDS011;11543;43.144;24.684;2022-08-03T00:18:15;1.40;;;1.20;;
22752;SDS011;11543;43.144;24.684;2022-08-03T00:20:41;3.33;;;1.35;;
22752;SDS011;11543;43.144;24.684;2022-08-03T00:23:06;2.47;;;1.30;;
22752;SDS011;11543;43.144;24.684;2022-08-03T00:25:35;2.58;;;1.50;;
22752;SDS011;11543;43.144;24.684;2022-08-03T00:28:01;1.77;;;1.40;;
22752;SDS011;11543;43.144;24.684;2022-08-03T00:30:28;1.98;;;1.30;;
22752;SDS011;11543;43.144;24.684;2022-08-03T00:32:53;2.00;;;1.40;;
22752;SDS011;11543;43.144;24.684;2022-08-03T00:35:19;3.03;;;1.48;;
22752;SDS011;11543;43.144;24.684;2022-08-03T00:37:45;2.17;;;1.33;;
22752;SDS011;11543;43.144;24.684;2022-08-03T00:40:11;1.95;;;1.30;;
22752;SDS011;11543;43.144;24.684;2022-08-03T00:42:51;1.95;;;1.17;;
22752;SDS011;11543;43.144;24.684;2022-08-03T00:45:18;2.88;;;1.10;;
22752;SDS011;11543;43.144;24.684;2022-08-03T00:47:45;3.00;;;1.20;;
22752;SDS011;11543;43.144;24.684;2022-08-03T00:50:11;3.35;;;1.30;;
22752;SDS011;11543;43.144;24.684;2022-08-03T00:52:37;5.97;;;1.50;;
22752;SDS011;11543;43.144;24.684;2022-08-03T00:55:03;4.25;;;1.38;;
22752;SDS011;11543;43.144;24.684;2022-08-03T00:57:29;3.75;;;1.50;;
22752;SDS011;11543;43.144;24.684;2022-08-03T00:59:57;2.70;;;1.38;;
22752;SDS011;11543;43.144;24.684;2022-08-03T01:02:24;1.95;;;1.35;;
22752;SDS011;11543;43.144;24.684;2022-08-03T01:04:50;1.48;;;1.10;;
22752;SDS011;11543;43.144;24.684;2022-08-03T01:07:36;3.30;;;1.30;;
22752;SDS011;11543;43.144;24.684;2022-08-03T01:16:03;1.60;;;1.50;;
22752;SDS011;11543;43.144;24.684;2022-08-03T01:18:38;4.10;;;1.30;;
22752;SDS011;11543;43.144;24.684;2022-08-03T01:21:11;1.65;;;1.42;;
22752;SDS011;11543;43.144;24.684;2022-08-03T01:23:51;3.63;;;1.50;;
22752;SDS011;11543;43.144;24.684;2022-08-03T01:29:13;2.58;;;1.38;;
22752;SDS011;11543;43.144;24.684;2022-08-03T01:32:02;3.00;;;1.50;;
22752;SDS011;11543;43.144;24.684;2022-08-03T01:34:33;2.72;;;1.35;;
22752;SDS011;11543;43.144;24.684;2022-08-03T01:37:05;2.15;;;1.48;;
22752;SDS011;11543;43.144;24.684;2022-08-03T01:39:33;2.85;;;1.58;;
22752;SDS011;11543;43.144;24.684;2022-08-03T01:42:03;1.50;;;1.30;;
22752;SDS011;11543;43.144;24.684;2022-08-03T01:44:32;4.90;;;1.45;;
22752;SDS011;11543;43.144;24.684;2022-08-03T01:47:01;3.73;;;1.50;;
22752;SDS011;11543;43.144;24.684;2022-08-03T01:49:28;2.95;;;1.50;;
22752;SDS011;11543;43.144;24.684;2022-08-03T01:51:56;2.42;;;1.55;;
22752;SDS011;11543;43.144;24.684;2022-08-03T01:54:24;2.20;;;1.50;;
22752;SDS011;11543;43.144;24.684;2022-08-03T01:56:51;3.42;;;1.52;;
22752;SDS011;11543;43.144;24.684;2022-08-03T01:59:18;4.25;;;1.50;;
22752;SDS011;11543;43.144;24.684;2022-08-03T02:01:45;3.67;;;1.60;;
22752;SDS011;11543;43.144;24.684;2022-08-03T02:04:13;2.50;;;1.40;;
22752;SDS011;11543;43.144;24.684;2022-08-03T02:06:42;2.78;;;1.60;;
22752;SDS011;11543;43.144;24.684;2022-08-03T02:09:11;1.88;;;1.48;;
22752;SDS011;11543;43.144;24.684;2022-08-03T02:11:38;1.90;;;1.38;;
22752;SDS011;11543;43.144;24.684;2022-08-03T02:14:05;3.85;;;1.48;;
22752;SDS011;11543;43.144;24.684;2022-08-03T02:16:32;2.03;;;1.67;;
22752;SDS011;11543;43.144;24.684;2022-08-03T02:19:00;2.28;;;1.50;;
22752;SDS011;11543;43.144;24.684;2022-08-03T02:21:28;2.97;;;1.52;;
22752;SDS011;11543;43.144;24.684;2022-08-03T02:23:57;2.45;;;1.70;;
22752;SDS011;11543;43.144;24.684;2022-08-03T02:26:23;2.22;;;1.70;;
22752;SDS011;11543;43.144;24.684;2022-08-03T02:28:54;2.45;;;1.52;;
22752;SDS011;11543;43.144;24.684;2022-08-03T02:31:22;1.90;;;1.58;;
22752;SDS011;11543;43.144;24.684;2022-08-03T02:33:52;3.10;;;1.60;;
22752;SDS011;11543;43.144;24.684;2022-08-03T02:36:21;3.28;;;1.77;;
22752;SDS011;11543;43.144;24.684;2022-08-03T02:38:51;2.75;;;1.73;;
22752;SDS011;11543;43.144;24.684;2022-08-03T02:41:20;1.63;;;1.48;;
22752;SDS011;11543;43.144;24.684;2022-08-03T02:43:53;2.45;;;1.52;;
22752;SDS011;11543;43.144;24.684;2022-08-03T02:46:21;3.10;;;1.63;;
22752;SDS011;11543;43.144;24.684;2022-08-03T02:48:49;2.35;;;1.42;;
22752;SDS011;11543;43.144;24.684;2022-08-03T02:51:16;3.03;;;1.70;;
22752;SDS011;11543;43.144;24.684;2022-08-03T02:53:44;1.88;;;1.30;;
22752;SDS011;11543;43.144;24.684;2022-08-03T02:56:10;4.60;;;1.50;;
22752;SDS011;11543;43.144;24.684;2022-08-03T02:58:38;2.38;;;1.50;;
22752;SDS011;11543;43.144;24.684;2022-08-03T03:01:06;2.92;;;1.50;;
22752;SDS011;11543;43.144;24.684;2022-08-03T03:03:33;2.72;;;1.45;;
22752;SDS011;11543;43.144;24.684;2022-08-03T03:06:00;5.13;;;1.40;;
22752;SDS011;11543;43.144;24.684;2022-08-03T03:08:27;2.08;;;1.58;;
22752;SDS011;11543;43.144;24.684;2022-08-03T03:10:54;2.05;;;1.50;;
22752;SDS011;11543;43.144;24.684;2022-08-03T03:13:24;2.40;;;1.53;;
22752;SDS011;11543;43.144;24.684;2022-08-03T03:15:52;3.03;;;1.50;;
22752;SDS011;11543;43.144;24.684;2022-08-03T03:18:20;2.72;;;1.73;;
22752;SDS011;11543;43.144;24.684;2022-08-03T03:20:46;2.67;;;1.50;;
22752;SDS011;11543;43.144;24.684;2022-08-03T03:23:14;2.40;;;1.77;;
22752;SDS011;11543;43.144;24.684;2022-08-03T03:25:41;2.65;;;1.70;;
22752;SDS011;11543;43.144;24.684;2022-08-03T03:28:08;2.97;;;1.70;;
22752;SDS011;11543;43.144;24.684;2022-08-03T03:30:34;2.65;;;1.67;;
22752;SDS011;11543;43.144;24.684;2022-08-03T03:33:00;3.00;;;2.20;;
22752;SDS011;11543;43.144;24.684;2022-08-03T03:35:26;4.90;;;2.10;;
22752;SDS011;11543;43.144;24.684;2022-08-03T03:37:52;9.02;;;2.10;;
22752;SDS011;11543;43.144;24.684;2022-08-03T03:40:18;4.03;;;1.90;;
22752;SDS011;11543;43.144;24.684;2022-08-03T03:42:45;3.13;;;1.75;;
22752;SDS011;11543;43.144;24.684;2022-08-03T03:45:10;2.45;;;2.00;;
22752;SDS011;11543;43.144;24.684;2022-08-03T03:47:37;3.67;;;1.88;;
22752;SDS011;11543;43.144;24.684;2022-08-03T03:50:03;2.83;;;1.60;;
22752;SDS011;11543;43.144;24.684;2022-08-03T03:52:30;2.45;;;1.70;;
22752;SDS011;11543;43.144;24.684;2022-08-03T03:54:56;2.58;;;1.50;;
22752;SDS011;11543;43.144;24.684;2022-08-03T03:57:21;3.45;;;1.90;;
22752;SDS011;11543;43.144;24.684;2022-08-03T03:59:47;2.05;;;1.80;;
22752;SDS011;11543;43.144;24.684;2022-08-03T04:02:13;5.72;;;1.70;;
22752;SDS011;11543;43.144;24.684;2022-08-03T04:04:38;1.73;;;1.50;;
22752;SDS011;11543;43.144;24.684;2022-08-03T04:07:23;3.53;;;1.48;;
22752;SDS011;11543;43.144;24.684;2022-08-03T04:10:13;3.22;;;1.75;;
22752;SDS011;11543;43.144;24.684;2022-08-03T04:13:01;3.75;;;1.70;;
22752;SDS011;11543;43.144;24.684;2022-08-03T04:15:30;3.97;;;1.63;;
22752;SDS011;11543;43.144;24.684;2022-08-03T04:17:58;5.20;;;1.85;;
22752;SDS011;11543;43.144;24.684;2022-08-03T04:20:27;6.40;;;1.77;;
22752;SDS011;11543;43.144;24.684;2022-08-03T04:22:55;8.48;;;2.08;;
22752;SDS011;11543;43.144;24.684;2022-08-03T04:25:25;5.05;;;2.00;;
22752;SDS011;11543;43.144;24.684;2022-08-03T04:27:54;4.80;;;2.03;;
22752;SDS011;11543;43.144;24.684;2022-08-03T04:30:23;4.78;;;2.15;;
22752;SDS011;11543;43.144;24.684;2022-08-03T04:32:51;2.38;;;1.77;;
22752;SDS011;11543;43.144;24.684;2022-08-03T04:35:19;2.15;;;1.90;;
22752;SDS011;11543;43.144;24.684;2022-08-03T04:37:45;6.55;;;2.17;;
22752;SDS011;11543;43.144;24.684;2022-08-03T04:40:15;3.60;;;2.00;;
22752;SDS011;11543;43.144;24.684;2022-08-03T04:43:03;4.13;;;2.10;;
22752;SDS011;11543;43.144;24.684;2022-08-03T04:45:30;2.33;;;2.13;;
22752;SDS011;11543;43.144;24.684;2022-08-03T04:47:57;5.00;;;3.85;;
22752;SDS011;11543;43.144;24.684;2022-08-03T04:50:24;3.88;;;3.30;;
22752;SDS011;11543;43.144;24.684;2022-08-03T04:52:52;2.95;;;2.65;;
22752;SDS011;11543;43.144;24.684;2022-08-03T04:55:28;3.28;;;2.50;;
22752;SDS011;11543;43.144;24.684;2022-08-03T04:57:55;2.90;;;2.35;;
22752;SDS011;11543;43.144;24.684;2022-08-03T05:00:21;2.33;;;2.13;;
22752;SDS011;11543;43.144;24.684;2022-08-03T05:02:47;6.47;;;2.55;;
22752;SDS011;11543;43.144;24.684;2022-08-03T05:05:12;3.92;;;2.13;;
22752;SDS011;11543;43.144;24.684;2022-08-03T05:07:37;3.90;;;1.73;;
22752;SDS011;11543;43.144;24.684;2022-08-03T05:10:06;3.42;;;1.73;;
22752;SDS011;11543;43.144;24.684;2022-08-03T05:12:34;3.57;;;2.40;;
22752;SDS011;11543;43.144;24.684;2022-08-03T05:15:00;3.80;;;1.77;;
22752;SDS011;11543;43.144;24.684;2022-08-03T05:17:26;2.67;;;1.83;;
22752;SDS011;11543;43.144;24.684;2022-08-03T05:19:52;3.67;;;1.70;;
22752;SDS011;11543;43.144;24.684;2022-08-03T05:22:19;2.45;;;2.00;;
22752;SDS011;11543;43.144;24.684;2022-08-03T05:24:45;4.22;;;3.85;;
22752;SDS011;11543;43.144;24.684;2022-08-03T05:27:10;4.97;;;2.70;;
22752;SDS011;11543;43.144;24.684;2022-08-03T05:29:41;5.20;;;3.03;;
22752;SDS011;11543;43.144;24.684;2022-08-03T05:32:07;4.07;;;2.50;;
22752;SDS011;11543;43.144;24.684;2022-08-03T05:34:33;3.22;;;1.60;;
22752;SDS011;11543;43.144;24.684;2022-08-03T05:36:58;2.65;;;1.90;;
22752;SDS011;11543;43.144;24.684;2022-08-03T05:39:24;2.20;;;1.75;;
22752;SDS011;11543;43.144;24.684;2022-08-03T05:41:49;3.45;;;1.70;;
22752;SDS011;11543;43.144;24.684;2022-08-03T05:44:15;2.38;;;1.40;;
22752;SDS011;11543;43.144;24.684;2022-08-03T05:46:40;3.05;;;1.73;;
22752;SDS011;11543;43.144;24.684;2022-08-03T05:49:05;3.25;;;1.92;;
22752;SDS011;11543;43.144;24.684;2022-08-03T05:51:31;2.80;;;2.08;;
22752;SDS011;11543;43.144;24.684;2022-08-03T05:53:56;3.38;;;1.60;;
22752;SDS011;11543;43.144;24.684;2022-08-03T05:56:22;5.15;;;1.80;;
22752;SDS011;11543;43.144;24.684;2022-08-03T05:58:49;3.20;;;1.52;;
22752;SDS011;11543;43.144;24.684;2022-08-03T06:01:16;3.58;;;1.70;;
22752;SDS011;11543;43.144;24.684;2022-08-03T06:03:41;3.15;;;1.58;;
22752;SDS011;11543;43.144;24.684;2022-08-03T06:06:07;5.25;;;1.70;;
22752;SDS011;11543;43.144;24.684;2022-08-03T06:08:33;1.95;;;1.35;;
22752;SDS011;11543;43.144;24.684;2022-08-03T06:10:59;5.40;;;1.60;;
22752;SDS011;11543;43.144;24.684;2022-08-03T06:13:24;4.47;;;1.70;;
22752;SDS011;11543;43.144;24.684;2022-08-03T06:15:50;3.58;;;1.70;;
22752;SDS011;11543;43.144;24.684;2022-08-03T06:18:16;6.45;;;4.00;;
22752;SDS011;11543;43.144;24.684;2022-08-03T06:20:41;4.68;;;3.33;;
22752;SDS011;11543;43.144;24.684;2022-08-03T06:23:07;6.00;;;3.40;;
22752;SDS011;11543;43.144;24.684;2022-08-03T06:25:32;6.70;;;3.45;;
22752;SDS011;11543;43.144;24.684;2022-08-03T06:27:58;4.45;;;2.92;;
22752;SDS011;11543;43.144;24.684;2022-08-03T06:30:24;6.22;;;2.60;;
22752;SDS011;11543;43.144;24.684;2022-08-03T06:32:50;5.32;;;2.40;;
22752;SDS011;11543;43.144;24.684;2022-08-03T06:35:15;5.43;;;2.30;;
22752;SDS011;11543;43.144;24.684;2022-08-03T06:37:44;4.53;;;2.50;;
22752;SDS011;11543;43.144;24.684;2022-08-03T06:40:13;2.85;;;2.00;;
22752;SDS011;11543;43.144;24.684;2022-08-03T06:42:40;6.00;;;2.10;;
22752;SDS011;11543;43.144;24.684;2022-08-03T06:45:06;5.03;;;2.00;;
22752;SDS011;11543;43.144;24.684;2022-08-03T06:47:34;5.32;;;2.03;;
22752;SDS011;11543;43.144;24.684;2022-08-03T06:50:00;3.05;;;1.90;;
22752;SDS011;11543;43.144;24.684;2022-08-03T06:52:27;3.08;;;1.92;;
22752;SDS011;11543;43.144;24.684;2022-08-03T06:54:52;2.90;;;1.50;;
22752;SDS011;11543;43.144;24.684;2022-08-03T06:57:17;3.65;;;1.70;;
22752;SDS011;11543;43.144;24.684;2022-08-03T06:59:43;6.93;;;2.05;;
22752;SDS011;11543;43.144;24.684;2022-08-03T07:02:08;3.08;;;1.90;;
22752;SDS011;11543;43.144;24.684;2022-08-03T07:04:35;4.68;;;1.98;;
22752;SDS011;11543;43.144;24.684;2022-08-03T07:07:01;3.97;;;1.80;;
22752;SDS011;11543;43.144;24.684;2022-08-03T07:09:26;4.68;;;1.90;;
22752;SDS011;11543;43.144;24.684;2022-08-03T07:11:52;3.53;;;1.77;;
22752;SDS011;11543;43.144;24.684;2022-08-03T07:14:18;3.20;;;2.00;;
22752;SDS011;11543;43.144;24.684;2022-08-03T07:16:43;2.97;;;1.65;;
22752;SDS011;11543;43.144;24.684;2022-08-03T07:19:09;2.63;;;1.70;;
22752;SDS011;11543;43.144;24.684;2022-08-03T07:21:35;2.70;;;1.70;;
22752;SDS011;11543;43.144;24.684;2022-08-03T07:24:00;4.90;;;1.70;;
22752;SDS011;11543;43.144;24.684;2022-08-03T07:26:25;4.18;;;1.90;;
22752;SDS011;11543;43.144;24.684;2022-08-03T07:28:51;5.13;;;1.75;;
22752;SDS011;11543;43.144;24.684;2022-08-03T07:31:16;2.70;;;1.60;;
22752;SDS011;11543;43.144;24.684;2022-08-03T07:33:42;3.05;;;1.70;;
22752;SDS011;11543;43.144;24.684;2022-08-03T07:36:07;4.32;;;1.50;;
22752;SDS011;11543;43.144;24.684;2022-08-03T07:38:33;3.47;;;1.88;;
22752;SDS011;11543;43.144;24.684;2022-08-03T07:41:00;4.28;;;2.58;;
22752;SDS011;11543;43.144;24.684;2022-08-03T07:43:26;4.63;;;2.25;;
22752;SDS011;11543;43.144;24.684;2022-08-03T07:45:52;5.13;;;2.00;;
22752;SDS011;11543;43.144;24.684;2022-08-03T07:48:17;2.20;;;1.70;;
22752;SDS011;11543;43.144;24.684;2022-08-03T07:50:42;5.70;;;1.98;;
22752;SDS011;11543;43.144;24.684;2022-08-03T07:53:08;4.10;;;1.63;;
22752;SDS011;11543;43.144;24.684;2022-08-03T07:55:33;2.47;;;1.67;;
22752;SDS011;11543;43.144;24.684;2022-08-03T08:00:28;4.93;;;2.30;;
22752;SDS011;11543;43.144;24.684;2022-08-03T08:02:53;2.20;;;2.00;;
22752;SDS011;11543;43.144;24.684;2022-08-03T08:05:19;2.65;;;1.60;;
22752;SDS011;11543;43.144;24.684;2022-08-03T08:07:44;3.45;;;1.80;;
22752;SDS011;11543;43.144;24.684;2022-08-03T08:10:10;2.47;;;1.80;;
22752;SDS011;11543;43.144;24.684;2022-08-03T08:12:36;4.20;;;1.60;;
22752;SDS011;11543;43.144;24.684;2022-08-03T08:15:02;4.75;;;1.70;;
22752;SDS011;11543;43.144;24.684;2022-08-03T08:17:29;3.80;;;1.75;;
22752;SDS011;11543;43.144;24.684;2022-08-03T08:19:54;4.93;;;2.00;;
22752;SDS011;11543;43.144;24.684;2022-08-03T08:22:20;2.15;;;1.70;;
22752;SDS011;11543;43.144;24.684;2022-08-03T08:24:45;3.22;;;1.70;;
22752;SDS011;11543;43.144;24.684;2022-08-03T08:27:13;1.42;;;1.30;;
22752;SDS011;11543;43.144;24.684;2022-08-03T08:29:39;5.10;;;1.50;;
22752;SDS011;11543;43.144;24.684;2022-08-03T08:32:04;1.85;;;1.30;;
22752;SDS011;11543;43.144;24.684;2022-08-03T08:34:30;3.10;;;1.50;;
22752;SDS011;11543;43.144;24.684;2022-08-03T08:36:55;1.70;;;1.48;;
22752;SDS011;11543;43.144;24.684;2022-08-03T08:39:20;2.10;;;1.33;;
22752;SDS011;11543;43.144;24.684;2022-08-03T08:41:49;5.20;;;1.67;;
22752;SDS011;11543;43.144;24.684;2022-08-03T08:44:15;3.05;;;1.67;;
22752;SDS011;11543;43.144;24.684;2022-08-03T08:46:40;2.33;;;1.60;;
22752;SDS011;11543;43.144;24.684;2022-08-03T08:49:07;2.97;;;1.60;;
22752;SDS011;11543;43.144;24.684;2022-08-03T08:51:34;3.75;;;1.50;;
22752;SDS011;11543;43.144;24.684;2022-08-03T08:54:04;2.55;;;1.35;;
22752;SDS011;11543;43.144;24.684;2022-08-03T08:56:31;3.45;;;1.50;;
22752;SDS011;11543;43.144;24.684;2022-08-03T08:58:58;5.43;;;1.35;;
22752;SDS011;11543;43.144;24.684;2022-08-03T09:01:25;1.85;;;1.40;;
22752;SDS011;11543;43.144;24.684;2022-08-03T09:03:52;1.90;;;1.23;;
22752;SDS011;11543;43.144;24.684;2022-08-03T09:06:18;3.45;;;2.80;;
22752;SDS011;11543;43.144;24.684;2022-08-03T09:08:44;5.57;;;2.45;;
22752;SDS011;11543;43.144;24.684;2022-08-03T09:11:10;3.63;;;1.90;;
22752;SDS011;11543;43.144;24.684;2022-08-03T09:13:36;1.85;;;1.40;;
22752;SDS011;11543;43.144;24.684;2022-08-03T09:16:17;1.75;;;1.45;;
22752;SDS011;11543;43.144;24.684;2022-08-03T09:18:53;2.20;;;1.38;;
22752;SDS011;11543;43.144;24.684;2022-08-03T09:21:23;2.53;;;1.45;;
22752;SDS011;11543;43.144;24.684;2022-08-03T09:23:56;2.17;;;1.40;;
22752;SDS011;11543;43.144;24.684;2022-08-03T09:26:24;3.05;;;1.48;;
22752;SDS011;11543;43.144;24.684;2022-08-03T09:28:58;5.05;;;1.38;;
22752;SDS011;11543;43.144;24.684;2022-08-03T09:31:29;3.92;;;1.30;;
22752;SDS011;11543;43.144;24.684;2022-08-03T09:36:35;3.53;;;1.20;;
22752;SDS011;11543;43.144;24.684;2022-08-03T09:39:08;5.65;;;1.67;;
22752;SDS011;11543;43.144;24.684;2022-08-03T09:41:44;3.75;;;1.30;;
22752;SDS011;11543;43.144;24.684;2022-08-03T09:44:37;1.80;;;1.10;;
22752;SDS011;11543;43.144;24.684;2022-08-03T09:47:08;3.55;;;1.20;;
22752;SDS011;11543;43.144;24.684;2022-08-03T09:49:36;2.05;;;1.20;;
22752;SDS011;11543;43.144;24.684;2022-08-03T09:52:15;1.98;;;1.20;;
22752;SDS011;11543;43.144;24.684;2022-08-03T09:54:43;3.08;;;1.70;;
22752;SDS011;11543;43.144;24.684;2022-08-03T09:57:24;2.63;;;1.80;;
22752;SDS011;11543;43.144;24.684;2022-08-03T09:59:50;1.92;;;1.10;;
22752;SDS011;11543;43.144;24.684;2022-08-03T10:02:21;3.38;;;1.33;;
22752;SDS011;11543;43.144;24.684;2022-08-03T10:04:48;3.22;;;1.30;;
22752;SDS011;11543;43.144;24.684;2022-08-03T10:07:17;2.45;;;1.00;;
22752;SDS011;11543;43.144;24.684;2022-08-03T10:09:54;1.55;;;1.10;;
22752;SDS011;11543;43.144;24.684;2022-08-03T10:12:24;2.60;;;1.08;;
22752;SDS011;11543;43.144;24.684;2022-08-03T10:14:51;1.73;;;1.00;;
22752;SDS011;11543;43.144;24.684;2022-08-03T10:17:17;3.05;;;1.30;;
22752;SDS011;11543;43.144;24.684;2022-08-03T10:19:44;2.28;;;0.98;;
22752;SDS011;11543;43.144;24.684;2022-08-03T10:27:21;1.88;;;1.02;;
22752;SDS011;11543;43.144;24.684;2022-08-03T10:29:51;1.60;;;1.10;;
22752;SDS011;11543;43.144;24.684;2022-08-03T10:33:03;2.22;;;1.15;;
22752;SDS011;11543;43.144;24.684;2022-08-03T10:35:12;2.28;;;1.10;;
22752;SDS011;11543;43.144;24.684;2022-08-03T10:37:47;1.77;;;1.20;;
22752;SDS011;11543;43.144;24.684;2022-08-03T10:40:17;2.55;;;1.20;;
22752;SDS011;11543;43.144;24.684;2022-08-03T10:42:46;3.20;;;1.08;;
22752;SDS011;11543;43.144;24.684;2022-08-03T10:45:18;1.77;;;1.23;;
22752;SDS011;11543;43.144;24.684;2022-08-03T10:47:47;1.88;;;0.90;;
22752;SDS011;11543;43.144;24.684;2022-08-03T10:50:13;2.10;;;1.00;;
22752;SDS011;11543;43.144;24.684;2022-08-03T10:52:59;1.33;;;1.10;;
22752;SDS011;11543;43.144;24.684;2022-08-03T10:55:38;3.58;;;1.10;;
22752;SDS011;11543;43.144;24.684;2022-08-03T11:01:04;3.22;;;1.17;;
22752;SDS011;11543;43.144;24.684;2022-08-03T11:04:14;3.85;;;1.10;;
22752;SDS011;11543;43.144;24.684;2022-08-03T11:06:23;2.72;;;1.20;;
22752;SDS011;11543;43.144;24.684;2022-08-03T11:11:34;2.10;;;1.10;;
22752;SDS011;11543;43.144;24.684;2022-08-03T11:14:05;1.50;;;1.10;;
22752;SDS011;11543;43.144;24.684;2022-08-03T11:16:34;2.55;;;1.10;;
22752;SDS011;11543;43.144;24.684;2022-08-03T11:19:01;3.10;;;1.10;;
22752;SDS011;11543;43.144;24.684;2022-08-03T11:45:57;1.52;;;1.00;;
22752;SDS011;11543;43.144;24.684;2022-08-03T11:48:24;2.17;;;1.10;;
22752;SDS011;11543;43.144;24.684;2022-08-03T11:50:51;3.50;;;0.82;;
22752;SDS011;11543;43.144;24.684;2022-08-03T11:53:17;1.40;;;0.90;;
22752;SDS011;11543;43.144;24.684;2022-08-03T11:55:44;1.00;;;0.80;;
22752;SDS011;11543;43.144;24.684;2022-08-03T11:58:19;1.67;;;0.80;;
22752;SDS011;11543;43.144;24.684;2022-08-03T12:00:46;1.70;;;0.90;;
22752;SDS011;11543;43.144;24.684;2022-08-03T12:03:13;2.63;;;0.95;;
22752;SDS011;11543;43.144;24.684;2022-08-03T12:05:50;1.10;;;0.90;;
22752;SDS011;11543;43.144;24.684;2022-08-03T12:08:17;1.67;;;1.00;;
22752;SDS011;11543;43.144;24.684;2022-08-03T12:10:52;1.70;;;0.90;;
22752;SDS011;11543;43.144;24.684;2022-08-03T12:13:19;1.65;;;1.00;;
22752;SDS011;11543;43.144;24.684;2022-08-03T12:15:52;1.77;;;0.90;;
22752;SDS011;11543;43.144;24.684;2022-08-03T12:18:19;1.48;;;1.10;;
22752;SDS011;11543;43.144;24.684;2022-08-03T12:20:46;3.83;;;1.20;;
22752;SDS011;11543;43.144;24.684;2022-08-03T12:23:16;1.60;;;1.02;;
22752;SDS011;11543;43.144;24.684;2022-08-03T12:25:43;1.70;;;1.00;;
22752;SDS011;11543;43.144;24.684;2022-08-03T12:28:11;3.15;;;1.13;;
22752;SDS011;11543;43.144;24.684;2022-08-03T12:30:41;2.15;;;1.00;;
22752;SDS011;11543;43.144;24.684;2022-08-03T12:33:17;1.45;;;1.13;;
22752;SDS011;11543;43.144;24.684;2022-08-03T12:35:46;1.67;;;1.00;;
22752;SDS011;11543;43.144;24.684;2022-08-03T12:38:17;2.33;;;1.10;;
22752;SDS011;11543;43.144;24.684;2022-08-03T12:40:45;1.33;;;0.90;;
22752;SDS011;11543;43.144;24.684;2022-08-03T12:43:19;2.88;;;1.10;;
22752;SDS011;11543;43.144;24.684;2022-08-03T12:45:45;2.50;;;1.05;;
22752;SDS011;11543;43.144;24.684;2022-08-03T12:48:10;2.58;;;1.00;;
22752;SDS011;11543;43.144;24.684;2022-08-03T12:50:36;1.65;;;0.80;;
22752;SDS011;11543;43.144;24.684;2022-08-03T12:53:04;1.73;;;0.95;;
22752;SDS011;11543;43.144;24.684;2022-08-03T12:55:31;1.83;;;1.00;;
22752;SDS011;11543;43.144;24.684;2022-08-03T12:58:00;1.45;;;0.90;;
22752;SDS011;11543;43.144;24.684;2022-08-03T13:00:26;2.95;;;1.00;;
22752;SDS011;11543;43.144;24.684;2022-08-03T13:03:00;2.85;;;1.10;;
22752;SDS011;11543;43.144;24.684;2022-08-03T13:05:31;1.58;;;0.90;;
22752;SDS011;11543;43.144;24.684;2022-08-03T13:08:07;2.42;;;1.00;;
22752;SDS011;11543;43.144;24.684;2022-08-03T13:10:46;2.57;;;1.10;;
22752;SDS011;11543;43.144;24.684;2022-08-03T13:13:12;1.35;;;0.85;;
22752;SDS011;11543;43.144;24.684;2022-08-03T13:15:38;2.97;;;0.77;;
22752;SDS011;11543;43.144;24.684;2022-08-03T13:18:04;1.98;;;0.88;;
22752;SDS011;11543;43.144;24.684;2022-08-03T13:20:29;2.30;;;1.00;;
22752;SDS011;11543;43.144;24.684;2022-08-03T13:22:55;1.20;;;0.90;;
22752;SDS011;11543;43.144;24.684;2022-08-03T13:25:20;3.83;;;1.00;;
22752;SDS011;11543;43.144;24.684;2022-08-03T13:27:46;1.10;;;0.88;;
22752;SDS011;11543;43.144;24.684;2022-08-03T13:30:13;2.78;;;1.00;;
22752;SDS011;11543;43.144;24.684;2022-08-03T13:32:39;2.70;;;0.93;;
22752;SDS011;11543;43.144;24.684;2022-08-03T13:35:05;1.42;;;0.88;;
22752;SDS011;11543;43.144;24.684;2022-08-03T13:37:31;2.10;;;1.00;;
22752;SDS011;11543;43.144;24.684;2022-08-03T13:39:57;1.52;;;0.82;;
22752;SDS011;11543;43.144;24.684;2022-08-03T13:42:23;2.10;;;1.00;;
22752;SDS011;11543;43.144;24.684;2022-08-03T13:44:49;1.38;;;0.90;;
22752;SDS011;11543;43.144;24.684;2022-08-03T13:47:15;2.55;;;0.85;;
22752;SDS011;11543;43.144;24.684;2022-08-03T13:49:40;2.33;;;1.20;;
22752;SDS011;11543;43.144;24.684;2022-08-03T13:52:06;2.58;;;1.10;;
22752;SDS011;11543;43.144;24.684;2022-08-03T13:54:31;1.20;;;1.00;;
22752;SDS011;11543;43.144;24.684;2022-08-03T13:56:58;1.23;;;0.90;;
22752;SDS011;11543;43.144;24.684;2022-08-03T13:59:24;3.28;;;1.10;;
22752;SDS011;11543;43.144;24.684;2022-08-03T14:01:51;0.93;;;0.82;;
22752;SDS011;11543;43.144;24.684;2022-08-03T14:04:17;10.35;;;1.92;;
22752;SDS011;11543;43.144;24.684;2022-08-03T14:06:43;4.32;;;1.20;;
22752;SDS011;11543;43.144;24.684;2022-08-03T14:09:09;2.50;;;1.10;;
22752;SDS011;11543;43.144;24.684;2022-08-03T14:11:42;3.13;;;0.90;;
22752;SDS011;11543;43.144;24.684;2022-08-03T14:14:08;3.63;;;1.03;;
22752;SDS011;11543;43.144;24.684;2022-08-03T14:16:34;2.80;;;0.90;;
22752;SDS011;11543;43.144;24.684;2022-08-03T14:19:00;2.85;;;1.05;;
22752;SDS011;11543;43.144;24.684;2022-08-03T14:21:25;1.27;;;0.88;;
22752;SDS011;11543;43.144;24.684;2022-08-03T14:23:51;2.70;;;0.98;;
22752;SDS011;11543;43.144;24.684;2022-08-03T14:26:16;1.88;;;0.80;;
22752;SDS011;11543;43.144;24.684;2022-08-03T14:28:44;2.28;;;1.10;;
22752;SDS011;11543;43.144;24.684;2022-08-03T14:31:09;4.40;;;1.10;;
22752;SDS011;11543;43.144;24.684;2022-08-03T14:33:35;2.80;;;1.02;;
22752;SDS011;11543;43.144;24.684;2022-08-03T14:36:00;1.45;;;1.20;;
22752;SDS011;11543;43.144;24.684;2022-08-03T14:38:26;2.95;;;1.10;;
22752;SDS011;11543;43.144;24.684;2022-08-03T14:40:51;1.75;;;1.20;;
22752;SDS011;11543;43.144;24.684;2022-08-03T14:43:17;4.22;;;0.90;;
22752;SDS011;11543;43.144;24.684;2022-08-03T14:45:45;1.52;;;1.00;;
22752;SDS011;11543;43.144;24.684;2022-08-03T14:48:11;3.92;;;1.50;;
22752;SDS011;11543;43.144;24.684;2022-08-03T14:50:36;3.17;;;1.00;;
22752;SDS011;11543;43.144;24.684;2022-08-03T14:53:02;2.60;;;1.38;;
22752;SDS011;11543;43.144;24.684;2022-08-03T14:55:27;4.20;;;1.10;;
22752;SDS011;11543;43.144;24.684;2022-08-03T14:57:53;6.35;;;1.58;;
22752;SDS011;11543;43.144;24.684;2022-08-03T15:00:18;2.63;;;1.30;;
22752;SDS011;11543;43.144;24.684;2022-08-03T15:02:43;2.67;;;1.60;;
22752;SDS011;11543;43.144;24.684;2022-08-03T15:05:09;3.03;;;1.50;;
22752;SDS011;11543;43.144;24.684;2022-08-03T15:07:36;1.35;;;1.25;;
22752;SDS011;11543;43.144;24.684;2022-08-03T15:10:02;4.70;;;2.08;;
22752;SDS011;11543;43.144;24.684;2022-08-03T15:12:28;6.03;;;2.00;;
22752;SDS011;11543;43.144;24.684;2022-08-03T15:14:53;2.25;;;1.42;;
22752;SDS011;11543;43.144;24.684;2022-08-03T15:17:19;3.95;;;1.58;;
22752;SDS011;11543;43.144;24.684;2022-08-03T15:19:44;2.70;;;1.20;;
22752;SDS011;11543;43.144;24.684;2022-08-03T15:22:09;4.95;;;1.27;;
22752;SDS011;11543;43.144;24.684;2022-08-03T15:24:35;3.25;;;1.55;;
22752;SDS011;11543;43.144;24.684;2022-08-03T15:27:00;1.60;;;1.20;;